Pagrindinis puslapis
METAR-TAF:

METAR-TAF

Oro uostai :

Mendosa, Argentina

platuma: 32-50S, ilguma: 068-47W, Aukštis: 705 m

Dabartinis oras

Ataskaita buvo paskelbta 1 valandą ir 4 minutes, ne 02:00 UTC
Ramus vėjas
Temperatūra 13°C
Drėgmė 51%
Slėgis 1025 hPa
Matomumas 10 km arba daugiau
nėra debesų žemiau 1500 m ir nėra kamuolinių lietaus debesų

METAR: SAME 070200Z 00000KT CAVOK 13/03 Q1025

Laikas: 00:04 (03:04 UTC)

Prognozė

Ataskaita buvo paskelbta 4 valandos ir 4 minutes, ne 23:00 UTC
Prognozė galioja nuo 07 metu 00 UTC su 07 metu 24 UTC
Vėjas 5 kt iš Rytų/Šiaurės Rytų
Matomumas 10 km arba daugiau
nėra debesų žemiau 1500 m ir nėra kamuolinių lietaus debesų

TAF: SAME 062300Z 0700/0724 07005KT CAVOK TX24/0720Z TN08/0710Z

Orai ataskaitas ir orų prognozės (METAR, TAF).

turimą stotys yra geltonos ir raudonos taškus žemėlapyje.

Perkelti pele per norėdami pamatyti stoties vardą.

Tada spustelėkite, norėdami matyti oro stebėjimo ir prognozės.

Norėdami pakeisti žemėlapį: spustelėkite ant žalios mygtukų su juodo kryžiaus žemyn,; žalią mygtuką su brūkšneliu, jei norite nutolinti; arba žalių rodyklių gretimoms žemėlapius.


METAR-TAF: